My Meet Scores
Jocelyn Graczyk, Gym Kinetics Gymnastics - MyMeetScores.com
Top100 | Top Teams | Upcoming Meets | Completed Meets | Latest | Add Scores | Help| Support | Bookmark and Share

Jocelyn Graczyk, Gym Kinetics Gymnastics
Personal Bests
LevelVault BarsBeamFloorAA
49.5259.600 9.6759.25037.550
58.2509.025 9.2008.70034.400
Meet Scores
Date Meet Team Session Level Division Vault Bars Beam Floor AA
2015-03-19 2015 Illinois Level 4 State Championship Gym Kinetics Gymnastics All 4 Sr.C 9.525 2 9.350 4 9.550 3 9.125 19 37.550 2
2015-02-27 Gasparilla Classic Gym Kinetics Gymnastics D6 4 L4 D6 grp6 8.850 2 9.350 3 9.350 2 8.950 6 36.500 2
2015-02-21 BIG Classic Gym Kinetics Gymnastics 6A 4 Junior A 8.850 3T 9.325 3 9.675 1T 8.500 10 36.350 3
2015-01-23 King Arthur Invitational Gym Kinetics Gymnastics 5 4 SrB 9.150 2 9.250 2 9.200 2 0.000 17 27.600 17
2015-01-09 Legacy Elite Winter Classic 2015 Flipstar Gymnastics Academy 4B 4 Jr B 8.925 2 9.600 1 9.500 2 0.000 12 28.025 11
2014-03-13 2014 Illinois Level 4 State Meet Gym Kinetics Gymnastics 4 Sr.A 8.950 7 9.275 8 9.100 8 9.250 14 36.575 6
2014-02-15 BIG Dream Classic 2014 Gym Kinetics Gymnastics 3A 4 Junior A 9.000 8 9.300 1T 9.550 1 9.200 2 37.050 2
2014-01-17 2014 Bravo Classic Gym Kinetics Gymnastics 8B 4 10+yrs 9.425 1 9.200 4T 8.600 4 9.075 9 36.300 3
2013-12-19 2013 Hawaiian Pineapple Classic Gym Kinetics Gymnastics A6 4 10 8.575 9 9.250 2 9.400 1 8.725 12 35.950 2
2013-12-06 Ultimate Wish Classic Gym Kinetics Gymnastics A 4 Junior9 9.050 3 9.500 1 9.300 3 9.000 8 36.850 3
2013-04-26 2013 Illinois Level 5 and Xcel State Meet Gym Kinetics Gymnastics 5 Youth.D 0.000 34 0.000 34 8.975 17 0.000 34 8.975 34
2013-02-22 Midwest Open 2013 Gym Kinetics Gymnastics 10B 5 9 8.150 24 8.550 12 9.000 13 8.700 19 34.400 18
2013-02-16 BIG Dream Classic 2013 Gym Kinetics Gymnastics 7A 5 Junior A 8.250 24 9.025 11 9.200 9 7.825 24 34.300 24
2012-12-13 2012 Hawaiin Pineapple Classic Gym Kinetics Gymnastics B5 5 age 9 7.900 10T 8.550 5T 8.800 5 8.175 9 33.425 8
2012-11-30 Ultimate Wish Classic 2012 Gym Kinetics Gymnastics 5 L5 Jr B S11 7.750 15 7.900 14 8.450 13 8.100 14 32.200 14
2012-11-09 2012 Illinois Judges Cup Gym Kinetics Gymnastics 1B 5 9 7.500 19 7.375 15 6.750 19 6.900 19 28.525 19
2012-04-20 2012 Illinois Level 4 State Championships Gym Kinetics Gymnastics 4 4 Youth.E 9.125 22 8.775 25 8.900 20 9.050 16 35.850 20
2012-02-25 Midwest Open 2012 Flipstar Gymnastics Academy 6A 4 Lvl 4: 8 9.200 8 8.800 7 8.450 9 8.950 9 35.400 9
2012-02-10 IGI Chicago Style Gymnastics Gym Kinetics Gymnastics 231 4 8 & Under 8.900 20T 8.050 25 9.025 8 8.675 18T 34.650 16
2012-01-28 2012 King Arthur Invitational Gym Kinetics Gymnastics 2 4 Jr.D 8.600 18 8.725 15 8.900 14 8.650 16 34.875 14
2012-01-06 2012 St. Jude Invite Flipstar Gymnastics Academy 4B 4 Junior A 8.100 15 8.900 6 8.300 4 7.925 14 33.225 11

www.lazysuits.com